createdAt,value
2022-09-06T00:00:57.321Z,99579.84
2022-09-06T00:03:24.877Z,99573.78
2022-09-06T00:05:52.175Z,99584.06
2022-09-06T00:08:19.079Z,99577.47
2022-09-06T00:10:45.946Z,99571.91
2022-09-06T00:13:12.914Z,99566.81
2022-09-06T00:15:41.198Z,99563.38
2022-09-06T00:18:08.377Z,99551.53
2022-09-06T00:20:38.592Z,99546.72
2022-09-06T00:23:07.199Z,99549.78
2022-09-06T00:25:35.412Z,99550.94
2022-09-06T00:28:05.622Z,99556.53
2022-09-06T00:30:33.763Z,99552.53
2022-09-06T00:33:02.142Z,99557.00
2022-09-06T00:35:29.664Z,99559.66
2022-09-06T00:37:58.650Z,99563.09
2022-09-06T00:40:27.148Z,99564.75
2022-09-06T00:42:54.275Z,99547.41
2022-09-06T00:45:22.976Z,99555.84
2022-09-06T00:47:50.569Z,99553.00
2022-09-06T00:50:19.870Z,99550.88
2022-09-06T00:52:52.092Z,99544.97
2022-09-06T00:55:21.341Z,99556.72
2022-09-06T00:57:49.708Z,99571.78
2022-09-06T01:00:19.238Z,99551.47
2022-09-06T01:02:46.811Z,99560.53
2022-09-06T01:05:15.167Z,99558.41
2022-09-06T01:08:02.247Z,99560.03
2022-09-06T01:11:01.851Z,99560.25
2022-09-06T01:13:43.323Z,99565.53
2022-09-06T01:16:21.335Z,99556.28
2022-09-06T01:19:26.850Z,99557.94
2022-09-06T01:22:08.624Z,99565.25
2022-09-06T01:25:14.460Z,99574.91
2022-09-06T01:28:26.332Z,99574.56
2022-09-06T01:31:07.313Z,99579.53
2022-09-06T01:33:45.980Z,99572.13
2022-09-06T01:36:20.853Z,99583.97
2022-09-06T01:38:47.759Z,99587.47
2022-09-06T01:41:14.858Z,99588.28
2022-09-06T01:43:50.345Z,99583.66
2022-09-06T01:46:32.549Z,99581.50
2022-09-06T01:49:22.841Z,99582.34
2022-09-06T01:52:10.030Z,99594.88
2022-09-06T01:55:05.386Z,99597.69
2022-09-06T01:57:54.982Z,99588.28
2022-09-06T02:00:23.958Z,99601.66
2022-09-06T02:03:05.638Z,99600.66
2022-09-06T02:05:41.430Z,99613.22
2022-09-06T02:08:17.400Z,99645.41
2022-09-06T02:10:53.675Z,99689.50
2022-09-06T02:13:26.013Z,99666.56
2022-09-06T02:16:01.774Z,99677.63
2022-09-06T02:18:38.058Z,99683.19
2022-09-06T02:21:10.945Z,99682.53
2022-09-06T02:23:42.908Z,99684.13
2022-09-06T02:26:17.363Z,99698.09
2022-09-06T02:28:44.553Z,99705.22
2022-09-06T02:31:22.573Z,99701.41
2022-09-06T02:33:51.986Z,99707.81
2022-09-06T02:36:19.756Z,99701.84
2022-09-06T02:38:47.236Z,99699.41
2022-09-06T02:41:19.336Z,99714.22
2022-09-06T02:43:46.263Z,99714.91
2022-09-06T02:46:15.102Z,99724.78
2022-09-06T02:48:42.196Z,99721.81
2022-09-06T02:51:09.952Z,99706.09
2022-09-06T02:53:37.331Z,99688.03
2022-09-06T02:56:04.704Z,99675.50
2022-09-06T02:58:31.673Z,99643.81
2022-09-06T03:00:58.905Z,99576.50
2022-09-06T03:03:27.793Z,99521.72
2022-09-06T03:05:55.375Z,99527.34
2022-09-06T03:08:24.481Z,99548.97
2022-09-06T03:10:53.449Z,99579.19
2022-09-06T03:13:20.997Z,99578.00
2022-09-06T03:15:51.109Z,99583.09
2022-09-06T03:18:18.462Z,99581.94
2022-09-06T03:20:49.368Z,99600.41
2022-09-06T03:23:16.350Z,99612.28
2022-09-06T03:25:43.823Z,99600.56
2022-09-06T03:28:11.839Z,99603.38
2022-09-06T03:30:39.675Z,99636.41
2022-09-06T03:33:06.793Z,99665.34
2022-09-06T03:35:34.123Z,99689.78
2022-09-06T03:38:02.533Z,99683.16
2022-09-06T03:40:29.422Z,99644.91
2022-09-06T03:42:56.571Z,99618.00
2022-09-06T03:45:23.467Z,99619.16
2022-09-06T03:47:50.628Z,99598.06
2022-09-06T03:50:17.651Z,99593.09
2022-09-06T03:52:44.539Z,99593.59
2022-09-06T03:55:12.992Z,99592.75
2022-09-06T03:57:39.830Z,99581.38
2022-09-06T04:00:08.573Z,99578.56
2022-09-06T04:02:40.459Z,99580.72
2022-09-06T04:05:08.412Z,99587.34
2022-09-06T04:07:35.310Z,99596.88
2022-09-06T04:10:02.126Z,99606.47
2022-09-06T04:12:30.734Z,99619.50
2022-09-06T04:14:57.540Z,99627.09
2022-09-06T04:17:24.397Z,99616.44
2022-09-06T04:19:51.313Z,99612.47
2022-09-06T04:22:18.254Z,99621.09
2022-09-06T04:24:45.106Z,99625.09
2022-09-06T04:27:12.215Z,99628.59
2022-09-06T04:29:40.862Z,99635.34
2022-09-06T04:32:08.167Z,99626.63
2022-09-06T04:34:50.946Z,99623.16
2022-09-06T04:37:18.344Z,99615.88
2022-09-06T04:39:45.399Z,99616.84
2022-09-06T04:42:12.681Z,99606.94
2022-09-06T04:44:41.600Z,99620.31
2022-09-06T04:47:13.448Z,99621.81
2022-09-06T04:49:40.940Z,99620.00
2022-09-06T04:52:08.363Z,99626.91
2022-09-06T04:54:35.393Z,99631.38
2022-09-06T04:57:02.410Z,99640.31
2022-09-06T04:59:55.033Z,99639.28
2022-09-06T05:02:28.139Z,99640.09
2022-09-06T05:04:55.173Z,99626.53
2022-09-06T05:07:22.348Z,99630.50
2022-09-06T05:09:49.324Z,99640.41
2022-09-06T05:12:16.506Z,99631.72
2022-09-06T05:14:43.705Z,99622.16
2022-09-06T05:17:10.746Z,99618.72
2022-09-06T05:19:39.330Z,99620.25
2022-09-06T05:22:06.607Z,99629.88
2022-09-06T05:24:33.485Z,99634.44
2022-09-06T05:27:00.877Z,99636.94
2022-09-06T05:29:30.620Z,99625.31
2022-09-06T05:32:00.443Z,99629.44
2022-09-06T05:34:28.914Z,99638.13
2022-09-06T05:36:57.227Z,99629.22
2022-09-06T05:39:24.251Z,99645.41
2022-09-06T05:41:51.185Z,99652.34
2022-09-06T05:44:18.434Z,99648.13
2022-09-06T05:46:48.445Z,99663.34
2022-09-06T05:49:15.813Z,99659.97
2022-09-06T05:51:42.793Z,99663.53
2022-09-06T05:54:12.156Z,99666.91
2022-09-06T05:56:39.530Z,99659.97
2022-09-06T05:59:06.429Z,99669.28
2022-09-06T06:01:33.732Z,99663.97
2022-09-06T06:04:03.894Z,99665.97
2022-09-06T06:06:33.216Z,99668.16
2022-09-06T06:09:00.980Z,99665.41
2022-09-06T06:11:31.178Z,99665.09
2022-09-06T06:14:05.145Z,99670.44
2022-09-06T06:20:42.328Z,99678.41
2022-09-06T06:23:09.891Z,99672.81
2022-09-06T06:25:36.804Z,99674.78
2022-09-06T06:28:05.218Z,99678.41
2022-09-06T06:30:32.138Z,99667.59
2022-09-06T06:33:03.630Z,99666.34
2022-09-06T06:35:30.576Z,99652.56
2022-09-06T06:37:57.558Z,99663.84
2022-09-06T06:40:24.403Z,99668.19
2022-09-06T06:42:51.870Z,99673.44
2022-09-06T06:45:20.133Z,99672.81
2022-09-06T06:47:49.867Z,99659.63
2022-09-06T06:50:16.961Z,99662.13
2022-09-06T06:52:44.454Z,99669.69
2022-09-06T06:55:14.746Z,99671.34
2022-09-06T06:57:42.115Z,99661.44
2022-09-06T07:00:11.620Z,99662.44
2022-09-06T07:02:40.080Z,99664.25
2022-09-06T07:08:00.988Z,99674.78
2022-09-06T07:10:35.346Z,99666.50
2022-09-06T07:13:02.610Z,99665.00
2022-09-06T07:15:29.647Z,99661.19
2022-09-06T07:17:58.405Z,99655.03
2022-09-06T07:20:25.432Z,99653.03
2022-09-06T07:25:47.129Z,99665.75
2022-09-06T07:28:14.369Z,99664.94
2022-09-06T07:30:42.596Z,99666.28
2022-09-06T07:33:11.674Z,99670.94
2022-09-06T07:35:38.589Z,99668.72
2022-09-06T07:38:05.541Z,99661.38
2022-09-06T07:40:32.733Z,99678.69
2022-09-06T07:43:00.186Z,99670.09
2022-09-06T07:45:27.636Z,99673.34
2022-09-06T07:53:15.393Z,99677.66
2022-09-06T07:55:45.127Z,99674.22
2022-09-06T07:58:12.031Z,99675.94
2022-09-06T08:00:39.050Z,99674.63
2022-09-06T08:03:06.324Z,99676.78
2022-09-06T08:11:34.001Z,99652.25
2022-09-06T08:14:06.603Z,99643.00
2022-09-06T08:16:36.223Z,99654.63
2022-09-06T08:19:06.088Z,99655.47
2022-09-06T08:21:36.970Z,99654.16
2022-09-06T08:24:08.424Z,99650.00
2022-09-06T08:26:37.790Z,99642.78
2022-09-06T08:29:10.367Z,99642.28
2022-09-06T08:31:47.770Z,99653.19
2022-09-06T08:41:43.435Z,99646.81
2022-09-06T08:45:32.420Z,99639.19
2022-09-06T08:48:41.191Z,99658.56
2022-09-06T08:51:46.514Z,99659.88
2022-09-06T08:54:27.205Z,99647.94
2022-09-06T08:57:14.658Z,99649.78
2022-09-06T08:59:50.628Z,99637.91
2022-09-06T09:02:21.954Z,99631.66
2022-09-06T09:05:06.489Z,99637.97
2022-09-06T09:08:05.850Z,99635.69
2022-09-06T09:10:42.549Z,99635.66
2022-09-06T09:13:27.476Z,99631.25
2022-09-06T09:15:55.312Z,99636.59
2022-09-06T09:18:33.701Z,99623.66
2022-09-06T09:21:02.008Z,99634.19
2022-09-06T09:23:37.624Z,99623.22
2022-09-06T09:26:16.156Z,99627.16
2022-09-06T09:29:11.163Z,99639.84
2022-09-06T09:31:41.753Z,99634.50
2022-09-06T09:34:30.718Z,99628.81
2022-09-06T09:40:16.994Z,99625.75
2022-09-06T09:53:24.706Z,99631.09
2022-09-06T09:55:57.738Z,99621.47
2022-09-06T09:58:36.761Z,99625.91
2022-09-06T10:04:44.256Z,99600.88
2022-09-06T10:07:16.416Z,99615.13
2022-09-06T10:10:02.642Z,99614.16
2022-09-06T10:12:33.576Z,99625.50
2022-09-06T10:15:06.930Z,99617.75
2022-09-06T10:17:37.487Z,99616.84
2022-09-06T10:20:10.177Z,99616.56
2022-09-06T10:22:56.907Z,99600.56
2022-09-06T10:25:49.069Z,99613.19
2022-09-06T10:28:33.467Z,99611.34
2022-09-06T10:31:35.036Z,99598.72
2022-09-06T10:34:32.538Z,99609.97
2022-09-06T10:37:17.367Z,99605.13
2022-09-06T10:39:55.295Z,99608.84
2022-09-06T10:42:48.104Z,99598.28
2022-09-06T10:46:21.589Z,99585.69
2022-09-06T10:49:18.255Z,99592.94
2022-09-06T10:51:52.244Z,99592.25
2022-09-06T10:54:23.276Z,99590.28
2022-09-06T11:00:18.351Z,99578.31
2022-09-06T11:10:49.109Z,99563.78
2022-09-06T11:26:27.425Z,99562.13
2022-09-06T11:28:58.452Z,99564.69
2022-09-06T11:34:37.900Z,99567.63
2022-09-06T11:37:23.216Z,99578.25
2022-09-06T11:40:29.940Z,99578.00
2022-09-06T11:43:54.552Z,99581.81
2022-09-06T11:47:01.594Z,99572.72
2022-09-06T11:49:35.717Z,99578.28
2022-09-06T11:53:00.984Z,99575.31
2022-09-06T11:55:51.273Z,99567.03
2022-09-06T11:58:36.887Z,99558.94
2022-09-06T12:34:40.204Z,99522.31
2022-09-06T12:42:24.546Z,99499.06
2022-09-06T13:00:11.894Z,99504.16
2022-09-06T13:08:24.248Z,99492.69
2022-09-06T13:10:52.611Z,99495.16
2022-09-06T13:13:26.133Z,99486.84
2022-09-06T13:15:54.068Z,99483.59
2022-09-06T13:18:47.367Z,99482.66
2022-09-06T13:21:28.313Z,99476.38
2022-09-06T13:24:52.616Z,99477.41
2022-09-06T14:14:12.891Z,99414.56
2022-09-06T14:16:46.335Z,99405.50
2022-09-06T14:19:18.801Z,99409.38
2022-09-06T14:21:55.823Z,99411.50
2022-09-06T14:24:25.815Z,99398.09
2022-09-06T14:28:12.078Z,99409.03
2022-09-06T14:44:16.800Z,99394.28
2022-09-06T14:46:44.781Z,99411.94
2022-09-06T14:49:37.267Z,99420.47
2022-09-06T14:52:05.462Z,99397.69
2022-09-06T14:54:33.964Z,99413.97
2022-09-06T14:57:06.504Z,99417.06
2022-09-06T14:59:35.479Z,99425.13
2022-09-06T15:02:04.925Z,99422.19
2022-09-06T15:04:35.959Z,99410.19
2022-09-06T15:07:11.995Z,99416.59
2022-09-06T15:09:54.800Z,99425.13
2022-09-06T15:12:36.140Z,99426.53
2022-09-06T15:15:33.154Z,99431.88
2022-09-06T15:18:04.021Z,99417.78
2022-09-06T15:20:50.967Z,99421.19
2022-09-06T15:23:25.791Z,99436.59
2022-09-06T15:26:09.191Z,99425.47
2022-09-06T15:28:37.133Z,99423.38
2022-09-06T15:38:04.429Z,99397.22
2022-09-06T15:40:31.640Z,99399.59
2022-09-06T15:42:58.905Z,99380.38
2022-09-06T15:45:26.394Z,99384.09
2022-09-06T15:47:55.160Z,99380.03
2022-09-06T16:06:58.942Z,99370.00
2022-09-06T16:09:33.126Z,99369.88
2022-09-06T16:12:01.094Z,99368.91
2022-09-06T16:15:08.602Z,99372.06
2022-09-06T16:17:42.273Z,99371.50
2022-09-06T16:20:20.400Z,99349.81
2022-09-06T16:22:50.345Z,99361.00
2022-09-06T16:25:18.582Z,99358.75
2022-09-06T16:27:49.224Z,99355.47
2022-09-06T16:30:16.403Z,99353.97
2022-09-06T16:32:43.672Z,99358.19
2022-09-06T16:35:10.635Z,99358.06
2022-09-06T16:37:46.890Z,99354.50
2022-09-06T16:40:18.142Z,99355.69
2022-09-06T16:42:45.780Z,99355.69
2022-09-06T16:45:42.202Z,99354.28
2022-09-06T16:48:11.427Z,99368.13
2022-09-06T16:50:38.454Z,99339.22
2022-09-06T16:53:05.454Z,99336.97
2022-09-06T16:55:36.877Z,99348.50
2022-09-06T16:58:56.253Z,99343.63
2022-09-06T17:01:33.572Z,99345.25
2022-09-06T17:04:02.595Z,99344.72
2022-09-06T17:06:31.190Z,99342.31
2022-09-06T17:08:59.277Z,99346.88
2022-09-06T17:11:29.125Z,99344.94
2022-09-06T17:13:57.405Z,99333.66
2022-09-06T17:16:27.085Z,99337.78
2022-09-06T17:19:00.242Z,99354.63
2022-09-06T17:21:30.087Z,99342.44
2022-09-06T17:23:58.081Z,99353.78
2022-09-06T17:26:25.236Z,99340.13
2022-09-06T17:28:53.905Z,99344.84
2022-09-06T17:31:25.633Z,99349.25
2022-09-06T17:33:53.663Z,99335.56
2022-09-06T17:36:24.011Z,99327.09
2022-09-06T17:38:54.518Z,99322.13
2022-09-06T17:41:25.000Z,99324.16
2022-09-06T17:43:54.894Z,99325.84
2022-09-06T17:46:27.819Z,99344.19
2022-09-06T17:48:59.423Z,99333.16
2022-09-06T17:51:27.152Z,99333.44
2022-09-06T17:53:55.307Z,99330.94
2022-09-06T17:56:22.682Z,99320.31
2022-09-06T17:58:56.961Z,99331.19
2022-09-06T18:01:26.599Z,99337.25
2022-09-06T18:03:54.299Z,99341.69
2022-09-06T18:13:30.690Z,99334.38
2022-09-06T18:16:34.713Z,99327.69
2022-09-06T18:19:05.578Z,99320.91
2022-09-06T18:21:39.645Z,99323.19
2022-09-06T18:24:09.604Z,99318.91
2022-09-06T18:26:37.551Z,99329.19
2022-09-06T18:29:06.931Z,99324.50
2022-09-06T18:31:35.528Z,99324.31
2022-09-06T18:34:03.759Z,99328.56
2022-09-06T18:37:05.581Z,99333.44
2022-09-06T18:39:39.489Z,99328.94
2022-09-06T18:42:48.966Z,99330.56
2022-09-06T18:46:21.770Z,99312.97
2022-09-06T18:48:58.189Z,99324.88
2022-09-06T18:51:27.982Z,99332.25
2022-09-06T18:54:02.235Z,99331.03
2022-09-06T18:56:30.404Z,99322.66
2022-09-06T18:59:16.207Z,99336.38
2022-09-06T19:01:43.952Z,99328.00
2022-09-06T19:04:45.771Z,99350.72
2022-09-06T19:36:11.885Z,99324.22
2022-09-06T19:39:02.103Z,99315.78
2022-09-06T19:41:36.359Z,99325.97
2022-09-06T19:44:04.367Z,99321.47
2022-09-06T19:46:31.946Z,99305.47
2022-09-06T19:48:58.933Z,99308.75
2022-09-06T19:51:27.776Z,99299.38
2022-09-06T19:53:58.866Z,99301.41
2022-09-06T19:56:33.365Z,99303.44
2022-09-06T19:59:02.798Z,99304.66
2022-09-06T20:01:33.505Z,99308.81
2022-09-06T20:04:03.037Z,99314.59
2022-09-06T20:06:31.680Z,99312.78
2022-09-06T20:09:00.998Z,99315.66
2022-09-06T20:11:32.410Z,99311.97
2022-09-06T20:14:01.028Z,99319.72
2022-09-06T20:16:28.751Z,99320.16
2022-09-06T20:19:02.071Z,99317.72
2022-09-06T20:21:31.309Z,99317.84
2022-09-06T20:23:59.389Z,99309.66
2022-09-06T20:26:34.416Z,99302.19
2022-09-06T20:29:03.636Z,99305.25
2022-09-06T20:31:32.895Z,99290.84
2022-09-06T20:34:02.310Z,99295.59
2022-09-06T20:36:30.875Z,99301.16
2022-09-06T20:38:58.466Z,99301.94
2022-09-06T20:41:26.836Z,99298.16
2022-09-06T20:43:56.419Z,99301.41
2022-09-06T20:46:26.549Z,99309.88
2022-09-06T20:48:57.557Z,99307.91
2022-09-06T20:51:25.868Z,99311.03
2022-09-06T20:53:57.239Z,99308.28
2022-09-06T20:56:27.392Z,99313.78
2022-09-06T20:58:58.232Z,99307.44
2022-09-06T21:01:28.604Z,99321.75
2022-09-06T21:03:58.577Z,99325.00
2022-09-06T21:06:31.123Z,99328.56
2022-09-06T21:09:00.118Z,99327.34
2022-09-06T21:11:27.064Z,99317.50
2022-09-06T21:13:56.556Z,99324.81
2022-09-06T21:16:26.632Z,99319.25
2022-09-06T21:18:56.207Z,99331.88
2022-09-06T21:21:26.213Z,99334.25
2022-09-06T21:23:53.722Z,99334.69
2022-09-06T21:26:23.020Z,99340.84
2022-09-06T21:28:50.419Z,99333.47
2022-09-06T21:31:21.293Z,99334.69
2022-09-06T21:33:50.587Z,99346.56
2022-09-06T21:36:21.347Z,99338.84
2022-09-06T21:38:50.662Z,99331.25
2022-09-06T21:41:19.856Z,99330.38
2022-09-06T21:43:52.443Z,99321.66
2022-09-06T21:46:22.671Z,99323.69
2022-09-06T21:48:59.947Z,99318.69
2022-09-06T21:51:28.737Z,99319.53
2022-09-06T21:53:56.563Z,99322.81
2022-09-06T21:56:24.756Z,99317.75
2022-09-06T21:58:55.243Z,99325.31
2022-09-06T22:01:23.172Z,99315.97
2022-09-06T22:03:50.676Z,99312.34
2022-09-06T22:06:20.871Z,99319.03
2022-09-06T22:08:48.802Z,99315.72
2022-09-06T22:11:27.507Z,99326.06
2022-09-06T22:13:59.059Z,99318.38
2022-09-06T22:16:26.700Z,99325.81
2022-09-06T22:18:53.870Z,99324.41
2022-09-06T22:21:21.755Z,99318.63
2022-09-06T22:23:54.186Z,99339.91
2022-09-06T22:26:26.499Z,99329.38
2022-09-06T22:28:57.652Z,99329.00
2022-09-06T22:31:26.539Z,99316.16
2022-09-06T22:33:54.672Z,99322.31
2022-09-06T22:36:22.571Z,99322.88
2022-09-06T22:38:49.992Z,99328.38
2022-09-06T22:41:25.081Z,99324.13
2022-09-06T22:43:52.767Z,99313.19
2022-09-06T22:46:21.745Z,99319.94
2022-09-06T22:48:49.109Z,99306.13
2022-09-06T22:51:18.944Z,99316.22
2022-09-06T22:53:48.230Z,99303.16
2022-09-06T22:56:15.219Z,99306.50
2022-09-06T22:58:42.559Z,99311.25
2022-09-06T23:01:14.727Z,99307.41
2022-09-06T23:03:44.717Z,99293.47
2022-09-06T23:06:12.238Z,99294.03
2022-09-06T23:08:40.770Z,99293.25
2022-09-06T23:11:10.461Z,99278.13
2022-09-06T23:13:38.564Z,99276.91
2022-09-06T23:16:08.123Z,99275.81
2022-09-06T23:18:35.498Z,99273.84
2022-09-06T23:21:10.431Z,99283.16
2022-09-06T23:23:40.156Z,99280.94
2022-09-06T23:26:10.281Z,99279.84
2022-09-06T23:28:40.718Z,99279.41
2022-09-06T23:31:11.520Z,99284.19
2022-09-06T23:33:39.798Z,99272.06
2022-09-06T23:36:12.537Z,99271.66
2022-09-06T23:38:41.558Z,99272.94
2022-09-06T23:41:11.535Z,99273.78
2022-09-06T23:43:40.637Z,99267.19
2022-09-06T23:46:12.020Z,99264.59
2022-09-06T23:48:39.442Z,99280.97
2022-09-06T23:51:08.384Z,99285.44
2022-09-06T23:53:38.865Z,99282.97
2022-09-06T23:56:06.923Z,99287.22
2022-09-06T23:58:34.477Z,99276.97
